sensor_id;sensor_type;location;lat;lon;timestamp;P1;durP1;ratioP1;P2;durP2;ratioP2
73315;SDS011;61545;53.726;-0.444;2023-05-16T00:06:10;7.6;;;1.9;;
73315;SDS011;61545;53.726;-0.444;2023-05-16T00:11:12;7.6;;;1.9;;
73315;SDS011;61545;53.726;-0.444;2023-05-16T00:16:10;6.8;;;1.9;;
73315;SDS011;61545;53.726;-0.444;2023-05-16T00:31:13;7.0;;;2;;
73315;SDS011;61545;53.726;-0.444;2023-05-16T00:36:10;5.5;;;1.8;;
73315;SDS011;61545;53.726;-0.444;2023-05-16T00:46:15;6.9;;;1.7;;
73315;SDS011;61545;53.726;-0.444;2023-05-16T00:51:13;8.2;;;2.9;;
73315;SDS011;61545;53.726;-0.444;2023-05-16T00:56:12;10.8;;;2.5;;
73315;SDS011;61545;53.726;-0.444;2023-05-16T01:01:14;6.4;;;2.5;;
73315;SDS011;61545;53.726;-0.444;2023-05-16T01:06:12;6.9;;;2.2;;
73315;SDS011;61545;53.726;-0.444;2023-05-16T01:11:16;6.9;;;2.2;;
73315;SDS011;61545;53.726;-0.444;2023-05-16T01:16:15;7.2;;;2;;
73315;SDS011;61545;53.726;-0.444;2023-05-16T01:21:12;3.4;;;1.6;;
73315;SDS011;61545;53.726;-0.444;2023-05-16T01:26:19;4.4;;;1.5;;
73315;SDS011;61545;53.726;-0.444;2023-05-16T01:31:15;7.1;;;1.6;;
73315;SDS011;61545;53.726;-0.444;2023-05-16T01:36:19;4.4;;;1.3;;
73315;SDS011;61545;53.726;-0.444;2023-05-16T01:41:16;4.4;;;1.3;;
73315;SDS011;61545;53.726;-0.444;2023-05-16T01:46:14;6.4;;;1.2;;
73315;SDS011;61545;53.726;-0.444;2023-05-16T01:51:12;5.7;;;1.2;;
73315;SDS011;61545;53.726;-0.444;2023-05-16T01:56:14;3.9;;;1.3;;
73315;SDS011;61545;53.726;-0.444;2023-05-16T02:06:12;5.1;;;1.1;;
73315;SDS011;61545;53.726;-0.444;2023-05-16T02:11:13;5.1;;;1.1;;
73315;SDS011;61545;53.726;-0.444;2023-05-16T02:21:12;5.1;;;1;;
73315;SDS011;61545;53.726;-0.444;2023-05-16T02:26:10;5.5;;;1.1;;
73315;SDS011;61545;53.726;-0.444;2023-05-16T02:36:10;2.6;;;0.8;;
73315;SDS011;61545;53.726;-0.444;2023-05-16T02:41:10;2.6;;;0.8;;
73315;SDS011;61545;53.726;-0.444;2023-05-16T02:48:05;4.4;;;1.2;;
73315;SDS011;61545;53.726;-0.444;2023-05-16T02:51:10;5.1;;;1.3;;
73315;SDS011;61545;53.726;-0.444;2023-05-16T02:56:10;4.0;;;1;;
73315;SDS011;61545;53.726;-0.444;2023-05-16T03:01:16;4.0;;;1.1;;
73315;SDS011;61545;53.726;-0.444;2023-05-16T03:06:12;5.0;;;1.3;;
73315;SDS011;61545;53.726;-0.444;2023-05-16T03:11:10;5.0;;;1.3;;
73315;SDS011;61545;53.726;-0.444;2023-05-16T03:16:14;4.3;;;1.2;;
73315;SDS011;61545;53.726;-0.444;2023-05-16T03:21:15;2.7;;;0.7;;
73315;SDS011;61545;53.726;-0.444;2023-05-16T03:31:10;7.2;;;1.6;;
73315;SDS011;61545;53.726;-0.444;2023-05-16T03:36:10;3.5;;;0.8;;
73315;SDS011;61545;53.726;-0.444;2023-05-16T03:41:10;3.5;;;0.8;;
73315;SDS011;61545;53.726;-0.444;2023-05-16T03:46:16;5.4;;;1;;
73315;SDS011;61545;53.726;-0.444;2023-05-16T03:51:12;5.5;;;0.8;;
73315;SDS011;61545;53.726;-0.444;2023-05-16T03:56:10;4.1;;;1.1;;
73315;SDS011;61545;53.726;-0.444;2023-05-16T04:01:10;6.0;;;1.3;;
73315;SDS011;61545;53.726;-0.444;2023-05-16T04:06:10;3.9;;;1;;
73315;SDS011;61545;53.726;-0.444;2023-05-16T04:16:10;5.8;;;1;;
73315;SDS011;61545;53.726;-0.444;2023-05-16T04:21:10;4.4;;;1.2;;
73315;SDS011;61545;53.726;-0.444;2023-05-16T04:26:12;4.9;;;1.2;;
73315;SDS011;61545;53.726;-0.444;2023-05-16T04:31:14;7.5;;;1.1;;
73315;SDS011;61545;53.726;-0.444;2023-05-16T04:36:11;5.8;;;1;;
73315;SDS011;61545;53.726;-0.444;2023-05-16T04:41:10;5.8;;;1;;
73315;SDS011;61545;53.726;-0.444;2023-05-16T04:46:12;4.1;;;0.8;;
73315;SDS011;61545;53.726;-0.444;2023-05-16T04:51:12;4.0;;;0.9;;
73315;SDS011;61545;53.726;-0.444;2023-05-16T04:56:10;4.7;;;0.9;;
73315;SDS011;61545;53.726;-0.444;2023-05-16T05:01:13;5.9;;;1;;
73315;SDS011;61545;53.726;-0.444;2023-05-16T05:06:10;6.5;;;1;;
73315;SDS011;61545;53.726;-0.444;2023-05-16T05:11:12;6.5;;;1;;
73315;SDS011;61545;53.726;-0.444;2023-05-16T05:16:12;5.8;;;1.2;;
73315;SDS011;61545;53.726;-0.444;2023-05-16T05:26:15;4.2;;;1;;
73315;SDS011;61545;53.726;-0.444;2023-05-16T05:31:12;5.4;;;1;;
73315;SDS011;61545;53.726;-0.444;2023-05-16T05:36:14;6.5;;;1.2;;
73315;SDS011;61545;53.726;-0.444;2023-05-16T05:41:12;6.5;;;1.2;;
73315;SDS011;61545;53.726;-0.444;2023-05-16T05:46:14;5.5;;;1.1;;
73315;SDS011;61545;53.726;-0.444;2023-05-16T05:51:10;4.7;;;1.2;;
73315;SDS011;61545;53.726;-0.444;2023-05-16T05:56:10;3.0;;;0.9;;
73315;SDS011;61545;53.726;-0.444;2023-05-16T06:01:13;3.9;;;1;;
73315;SDS011;61545;53.726;-0.444;2023-05-16T06:06:16;3.8;;;0.7;;
73315;SDS011;61545;53.726;-0.444;2023-05-16T06:16:23;7.9;;;1.3;;
73315;SDS011;61545;53.726;-0.444;2023-05-16T06:21:13;4.9;;;1.2;;
73315;SDS011;61545;53.726;-0.444;2023-05-16T06:31:10;3.1;;;1;;
73315;SDS011;61545;53.726;-0.444;2023-05-16T06:36:10;6.4;;;1.2;;
73315;SDS011;61545;53.726;-0.444;2023-05-16T06:41:13;6.4;;;1.2;;
73315;SDS011;61545;53.726;-0.444;2023-05-16T06:46:24;4.9;;;1.4;;
73315;SDS011;61545;53.726;-0.444;2023-05-16T06:51:13;9.1;;;2.3;;
73315;SDS011;61545;53.726;-0.444;2023-05-16T06:56:32;9.3;;;1.4;;
73315;SDS011;61545;53.726;-0.444;2023-05-16T07:06:14;2.9;;;1.1;;
73315;SDS011;61545;53.726;-0.444;2023-05-16T07:11:12;2.9;;;1.1;;
73315;SDS011;61545;53.726;-0.444;2023-05-16T07:16:12;7.4;;;1.8;;
73315;SDS011;61545;53.726;-0.444;2023-05-16T07:21:10;8.0;;;1.8;;
73315;SDS011;61545;53.726;-0.444;2023-05-16T07:26:13;8.5;;;2;;
73315;SDS011;61545;53.726;-0.444;2023-05-16T07:31:10;7.6;;;2.1;;
73315;SDS011;61545;53.726;-0.444;2023-05-16T07:36:12;8.7;;;1.8;;
73315;SDS011;61545;53.726;-0.444;2023-05-16T07:46:10;5.8;;;1.7;;
73315;SDS011;61545;53.726;-0.444;2023-05-16T07:51:12;9.0;;;1.9;;
73315;SDS011;61545;53.726;-0.444;2023-05-16T07:56:10;4.2;;;1.3;;
73315;SDS011;61545;53.726;-0.444;2023-05-16T08:06:13;5.7;;;1.8;;
73315;SDS011;61545;53.726;-0.444;2023-05-16T08:11:25;5.7;;;1.8;;
73315;SDS011;61545;53.726;-0.444;2023-05-16T08:16:13;9.9;;;1.8;;
73315;SDS011;61545;53.726;-0.444;2023-05-16T08:21:12;7.3;;;2.5;;
73315;SDS011;61545;53.726;-0.444;2023-05-16T08:26:14;8.4;;;2;;
73315;SDS011;61545;53.726;-0.444;2023-05-16T08:31:23;6.6;;;1.8;;
73315;SDS011;61545;53.726;-0.444;2023-05-16T08:36:13;8.7;;;2;;
73315;SDS011;61545;53.726;-0.444;2023-05-16T08:41:13;8.7;;;2;;
73315;SDS011;61545;53.726;-0.444;2023-05-16T08:46:33;7.0;;;2.7;;
73315;SDS011;61545;53.726;-0.444;2023-05-16T08:51:13;8.6;;;2.3;;
73315;SDS011;61545;53.726;-0.444;2023-05-16T08:56:14;6.0;;;2;;
73315;SDS011;61545;53.726;-0.444;2023-05-16T09:01:13;9.8;;;2.6;;
73315;SDS011;61545;53.726;-0.444;2023-05-16T09:06:14;13.4;;;2.8;;
73315;SDS011;61545;53.726;-0.444;2023-05-16T09:11:30;13.4;;;2.8;;
73315;SDS011;61545;53.726;-0.444;2023-05-16T09:16:22;12.0;;;2.8;;
73315;SDS011;61545;53.726;-0.444;2023-05-16T09:26:12;11.1;;;2.9;;
73315;SDS011;61545;53.726;-0.444;2023-05-16T09:36:14;8.8;;;3;;
73315;SDS011;61545;53.726;-0.444;2023-05-16T09:41:22;8.8;;;3;;
73315;SDS011;61545;53.726;-0.444;2023-05-16T09:46:25;11.5;;;3.3;;
73315;SDS011;61545;53.726;-0.444;2023-05-16T09:51:13;7.6;;;2.7;;
73315;SDS011;61545;53.726;-0.444;2023-05-16T09:56:13;10.0;;;2.8;;
73315;SDS011;61545;53.726;-0.444;2023-05-16T10:01:31;10.2;;;3.2;;
73315;SDS011;61545;53.726;-0.444;2023-05-16T10:06:13;7.5;;;2.5;;
73315;SDS011;61545;53.726;-0.444;2023-05-16T10:11:23;7.5;;;2.5;;
73315;SDS011;61545;53.726;-0.444;2023-05-16T10:16:22;6.4;;;2.6;;
73315;SDS011;61545;53.726;-0.444;2023-05-16T10:21:13;8.1;;;2.7;;
73315;SDS011;61545;53.726;-0.444;2023-05-16T10:26:16;9.5;;;3.5;;
73315;SDS011;61545;53.726;-0.444;2023-05-16T10:31:10;13.0;;;3.5;;
73315;SDS011;61545;53.726;-0.444;2023-05-16T10:36:10;10.9;;;3.5;;
73315;SDS011;61545;53.726;-0.444;2023-05-16T10:41:12;10.9;;;3.5;;
73315;SDS011;61545;53.726;-0.444;2023-05-16T10:46:19;10.9;;;3.1;;
73315;SDS011;61545;53.726;-0.444;2023-05-16T10:51:33;7.6;;;2.7;;
73315;SDS011;61545;53.726;-0.444;2023-05-16T10:56:10;14.3;;;3.3;;
73315;SDS011;61545;53.726;-0.444;2023-05-16T11:06:13;11.6;;;3.4;;
73315;SDS011;61545;53.726;-0.444;2023-05-16T11:11:40;11.6;;;3.4;;
73315;SDS011;61545;53.726;-0.444;2023-05-16T11:16:28;9.8;;;3.2;;
73315;SDS011;61545;53.726;-0.444;2023-05-16T11:21:10;8.4;;;3;;
73315;SDS011;61545;53.726;-0.444;2023-05-16T11:31:10;9.1;;;2.8;;
73315;SDS011;61545;53.726;-0.444;2023-05-16T11:36:11;9.1;;;2.8;;
73315;SDS011;61545;53.726;-0.444;2023-05-16T11:41:12;8.5;;;2.7;;
73315;SDS011;61545;53.726;-0.444;2023-05-16T11:46:14;7.9;;;3;;
73315;SDS011;61545;53.726;-0.444;2023-05-16T11:51:16;6.8;;;2.5;;
73315;SDS011;61545;53.726;-0.444;2023-05-16T11:56:12;7.6;;;2.4;;
73315;SDS011;61545;53.726;-0.444;2023-05-16T12:01:15;7.8;;;2.9;;
73315;SDS011;61545;53.726;-0.444;2023-05-16T12:11:13;6.7;;;2.8;;
73315;SDS011;61545;53.726;-0.444;2023-05-16T12:16:10;8.9;;;2.8;;
73315;SDS011;61545;53.726;-0.444;2023-05-16T12:31:17;9.8;;;2.9;;
73315;SDS011;61545;53.726;-0.444;2023-05-16T12:36:13;9.8;;;2.9;;
73315;SDS011;61545;53.726;-0.444;2023-05-16T12:41:10;5.2;;;2.4;;
73315;SDS011;61545;53.726;-0.444;2023-05-16T12:46:12;9.0;;;2.9;;
73315;SDS011;61545;53.726;-0.444;2023-05-16T12:51:11;10.4;;;3.1;;
73315;SDS011;61545;53.726;-0.444;2023-05-16T12:56:13;8.6;;;3;;
73315;SDS011;61545;53.726;-0.444;2023-05-16T13:01:10;6.8;;;2.4;;
73315;SDS011;61545;53.726;-0.444;2023-05-16T13:06:11;6.8;;;2.4;;
73315;SDS011;61545;53.726;-0.444;2023-05-16T13:11:10;8.8;;;3;;
73315;SDS011;61545;53.726;-0.444;2023-05-16T13:16:15;6.9;;;2.7;;
73315;SDS011;61545;53.726;-0.444;2023-05-16T13:21:10;7.6;;;2.8;;
73315;SDS011;61545;53.726;-0.444;2023-05-16T13:26:10;7.1;;;2.3;;
73315;SDS011;61545;53.726;-0.444;2023-05-16T13:31:10;6.4;;;2.6;;
73315;SDS011;61545;53.726;-0.444;2023-05-16T13:36:10;6.4;;;2.6;;
73315;SDS011;61545;53.726;-0.444;2023-05-16T13:41:10;7.9;;;2.6;;
73315;SDS011;61545;53.726;-0.444;2023-05-16T13:46:10;7.0;;;2.7;;
73315;SDS011;61545;53.726;-0.444;2023-05-16T13:51:10;7.9;;;2.8;;
73315;SDS011;61545;53.726;-0.444;2023-05-16T13:56:15;7.5;;;2.5;;
73315;SDS011;61545;53.726;-0.444;2023-05-16T14:01:16;11.4;;;2.9;;
73315;SDS011;61545;53.726;-0.444;2023-05-16T14:06:10;11.4;;;2.9;;
73315;SDS011;61545;53.726;-0.444;2023-05-16T14:11:13;5.9;;;2.5;;
73315;SDS011;61545;53.726;-0.444;2023-05-16T14:16:13;7.6;;;2.8;;
73315;SDS011;61545;53.726;-0.444;2023-05-16T14:21:12;6.7;;;2.5;;
73315;SDS011;61545;53.726;-0.444;2023-05-16T14:26:15;8.7;;;3;;
73315;SDS011;61545;53.726;-0.444;2023-05-16T14:31:12;7.9;;;2.1;;
73315;SDS011;61545;53.726;-0.444;2023-05-16T14:36:13;7.9;;;2.1;;
73315;SDS011;61545;53.726;-0.444;2023-05-16T14:41:13;6.0;;;1.8;;
73315;SDS011;61545;53.726;-0.444;2023-05-16T14:46:12;6.5;;;2.4;;
73315;SDS011;61545;53.726;-0.444;2023-05-16T14:51:10;7.1;;;2.5;;
73315;SDS011;61545;53.726;-0.444;2023-05-16T14:56:14;9.8;;;2.6;;
73315;SDS011;61545;53.726;-0.444;2023-05-16T15:01:12;8.2;;;2.8;;
73315;SDS011;61545;53.726;-0.444;2023-05-16T15:06:10;8.2;;;2.8;;
73315;SDS011;61545;53.726;-0.444;2023-05-16T15:11:12;13.1;;;3.6;;
73315;SDS011;61545;53.726;-0.444;2023-05-16T15:16:13;5.6;;;2.7;;
73315;SDS011;61545;53.726;-0.444;2023-05-16T15:21:10;9.6;;;3.6;;
73315;SDS011;61545;53.726;-0.444;2023-05-16T15:26:16;10.2;;;3.7;;
73315;SDS011;61545;53.726;-0.444;2023-05-16T15:31:23;8.4;;;2.9;;
73315;SDS011;61545;53.726;-0.444;2023-05-16T15:36:10;8.4;;;2.9;;
73315;SDS011;61545;53.726;-0.444;2023-05-16T15:41:15;9.3;;;3.3;;
73315;SDS011;61545;53.726;-0.444;2023-05-16T15:46:10;9.5;;;3.5;;
73315;SDS011;61545;53.726;-0.444;2023-05-16T15:51:10;8.3;;;2.9;;
73315;SDS011;61545;53.726;-0.444;2023-05-16T15:56:22;14.2;;;4.4;;
73315;SDS011;61545;53.726;-0.444;2023-05-16T16:01:13;9.1;;;3.4;;
73315;SDS011;61545;53.726;-0.444;2023-05-16T16:11:15;10.7;;;3.8;;
73315;SDS011;61545;53.726;-0.444;2023-05-16T16:16:12;12.6;;;3.5;;
73315;SDS011;61545;53.726;-0.444;2023-05-16T16:31:13;17.0;;;3.8;;
73315;SDS011;61545;53.726;-0.444;2023-05-16T16:36:10;17.0;;;3.8;;
73315;SDS011;61545;53.726;-0.444;2023-05-16T16:46:23;10.7;;;3.7;;
73315;SDS011;61545;53.726;-0.444;2023-05-16T16:51:23;11.4;;;4;;
73315;SDS011;61545;53.726;-0.444;2023-05-16T16:56:13;11.6;;;3.3;;
73315;SDS011;61545;53.726;-0.444;2023-05-16T17:01:20;9.9;;;3.4;;
73315;SDS011;61545;53.726;-0.444;2023-05-16T17:06:12;9.9;;;3.4;;
73315;SDS011;61545;53.726;-0.444;2023-05-16T17:11:10;8.8;;;3.3;;
73315;SDS011;61545;53.726;-0.444;2023-05-16T17:21:12;13.3;;;3.9;;
73315;SDS011;61545;53.726;-0.444;2023-05-16T17:26:10;11.7;;;3.8;;
73315;SDS011;61545;53.726;-0.444;2023-05-16T17:31:10;9.8;;;3.9;;
73315;SDS011;61545;53.726;-0.444;2023-05-16T17:36:10;9.8;;;3.9;;
73315;SDS011;61545;53.726;-0.444;2023-05-16T17:41:21;7.9;;;3;;
73315;SDS011;61545;53.726;-0.444;2023-05-16T17:46:13;11.0;;;3.1;;
73315;SDS011;61545;53.726;-0.444;2023-05-16T17:51:27;7.8;;;3.1;;
73315;SDS011;61545;53.726;-0.444;2023-05-16T17:56:21;11.0;;;2.9;;
73315;SDS011;61545;53.726;-0.444;2023-05-16T18:01:13;11.4;;;3.6;;
73315;SDS011;61545;53.726;-0.444;2023-05-16T18:11:10;7.5;;;3.2;;
73315;SDS011;61545;53.726;-0.444;2023-05-16T18:16:10;15.1;;;3.9;;
73315;SDS011;61545;53.726;-0.444;2023-05-16T18:26:12;8.9;;;3.4;;
73315;SDS011;61545;53.726;-0.444;2023-05-16T18:31:10;9.6;;;3.1;;
73315;SDS011;61545;53.726;-0.444;2023-05-16T18:36:10;9.6;;;3.1;;
73315;SDS011;61545;53.726;-0.444;2023-05-16T18:41:13;9.3;;;3.4;;
73315;SDS011;61545;53.726;-0.444;2023-05-16T18:46:12;8.1;;;3;;
73315;SDS011;61545;53.726;-0.444;2023-05-16T18:51:10;9.4;;;3.1;;
73315;SDS011;61545;53.726;-0.444;2023-05-16T18:56:12;9.0;;;3.3;;
73315;SDS011;61545;53.726;-0.444;2023-05-16T19:01:10;7.9;;;2.8;;
73315;SDS011;61545;53.726;-0.444;2023-05-16T19:06:13;7.9;;;2.8;;
73315;SDS011;61545;53.726;-0.444;2023-05-16T19:11:10;9.1;;;2.9;;
73315;SDS011;61545;53.726;-0.444;2023-05-16T19:16:15;8.3;;;3.2;;
73315;SDS011;61545;53.726;-0.444;2023-05-16T19:21:12;7.2;;;2.5;;
73315;SDS011;61545;53.726;-0.444;2023-05-16T19:26:12;7.6;;;2.7;;
73315;SDS011;61545;53.726;-0.444;2023-05-16T19:31:11;7.3;;;2.7;;
73315;SDS011;61545;53.726;-0.444;2023-05-16T19:36:12;7.3;;;2.7;;
73315;SDS011;61545;53.726;-0.444;2023-05-16T19:41:17;7.0;;;2.5;;
73315;SDS011;61545;53.726;-0.444;2023-05-16T19:46:15;6.6;;;2.8;;
73315;SDS011;61545;53.726;-0.444;2023-05-16T19:51:10;7.4;;;2.9;;
73315;SDS011;61545;53.726;-0.444;2023-05-16T19:56:12;7.2;;;2.8;;
73315;SDS011;61545;53.726;-0.444;2023-05-16T20:01:13;7.4;;;2.7;;
73315;SDS011;61545;53.726;-0.444;2023-05-16T20:06:13;7.4;;;2.7;;
73315;SDS011;61545;53.726;-0.444;2023-05-16T20:11:12;13.7;;;3.4;;
73315;SDS011;61545;53.726;-0.444;2023-05-16T20:16:10;9.5;;;3.7;;
73315;SDS011;61545;53.726;-0.444;2023-05-16T20:21:10;8.3;;;3;;
73315;SDS011;61545;53.726;-0.444;2023-05-16T20:26:12;9.5;;;3.6;;
73315;SDS011;61545;53.726;-0.444;2023-05-16T20:31:13;8.4;;;3.4;;
73315;SDS011;61545;53.726;-0.444;2023-05-16T20:36:12;8.4;;;3.4;;
73315;SDS011;61545;53.726;-0.444;2023-05-16T20:41:12;7.9;;;3;;
73315;SDS011;61545;53.726;-0.444;2023-05-16T20:46:12;10.1;;;3;;
73315;SDS011;61545;53.726;-0.444;2023-05-16T20:51:13;11.1;;;2.8;;
73315;SDS011;61545;53.726;-0.444;2023-05-16T21:01:15;7.5;;;3.2;;
73315;SDS011;61545;53.726;-0.444;2023-05-16T21:06:12;7.5;;;3.2;;
73315;SDS011;61545;53.726;-0.444;2023-05-16T21:11:10;6.1;;;3;;
73315;SDS011;61545;53.726;-0.444;2023-05-16T21:16:10;8.4;;;3.5;;
73315;SDS011;61545;53.726;-0.444;2023-05-16T21:21:10;8.4;;;3.5;;
73315;SDS011;61545;53.726;-0.444;2023-05-16T21:26:10;5.3;;;3.6;;
73315;SDS011;61545;53.726;-0.444;2023-05-16T21:31:10;6.4;;;3.1;;
73315;SDS011;61545;53.726;-0.444;2023-05-16T21:36:15;6.4;;;3.1;;
73315;SDS011;61545;53.726;-0.444;2023-05-16T21:41:10;7.5;;;3.9;;
73315;SDS011;61545;53.726;-0.444;2023-05-16T21:46:10;6.9;;;3.1;;
73315;SDS011;61545;53.726;-0.444;2023-05-16T21:51:24;7.9;;;3.2;;
73315;SDS011;61545;53.726;-0.444;2023-05-16T21:56:22;6.3;;;3.1;;
73315;SDS011;61545;53.726;-0.444;2023-05-16T22:01:12;6.8;;;3.2;;
73315;SDS011;61545;53.726;-0.444;2023-05-16T22:06:10;6.8;;;3.2;;
73315;SDS011;61545;53.726;-0.444;2023-05-16T22:16:15;8.5;;;2.9;;
73315;SDS011;61545;53.726;-0.444;2023-05-16T22:21:10;7.1;;;3.2;;
73315;SDS011;61545;53.726;-0.444;2023-05-16T22:31:15;8.2;;;4;;
73315;SDS011;61545;53.726;-0.444;2023-05-16T22:36:10;8.2;;;4;;
73315;SDS011;61545;53.726;-0.444;2023-05-16T22:41:23;10.2;;;4.2;;
73315;SDS011;61545;53.726;-0.444;2023-05-16T22:46:35;7.0;;;3.7;;
73315;SDS011;61545;53.726;-0.444;2023-05-16T22:51:23;5.9;;;3.1;;
73315;SDS011;61545;53.726;-0.444;2023-05-16T22:56:13;6.2;;;2.8;;
73315;SDS011;61545;53.726;-0.444;2023-05-16T23:06:22;6.2;;;3.2;;
73315;SDS011;61545;53.726;-0.444;2023-05-16T23:16:12;8.7;;;3.4;;
73315;SDS011;61545;53.726;-0.444;2023-05-16T23:21:13;8.8;;;3.5;;
73315;SDS011;61545;53.726;-0.444;2023-05-16T23:31:10;8.6;;;3.4;;
73315;SDS011;61545;53.726;-0.444;2023-05-16T23:36:10;8.6;;;3.4;;
73315;SDS011;61545;53.726;-0.444;2023-05-16T23:41:15;10.4;;;4;;
73315;SDS011;61545;53.726;-0.444;2023-05-16T23:46:10;8.3;;;3.5;;
73315;SDS011;61545;53.726;-0.444;2023-05-16T23:51:10;12.2;;;3.3;;
73315;SDS011;61545;53.726;-0.444;2023-05-16T23:56:10;9.0;;;3.7;;
